Time;durP1;ratioP1;P1;durP2;ratioP2;P2;SDS_P1;SDS_P2;PMS_P1;PMS_P2;Temp;Humidity;BMP_temperature;BMP_pressure;BME280_temperature;BME280_humidity;BME280_pressure;Samples;Min_cycle;Max_cycle;Signal;HPM_P1;HPM_P2
2023/06/16 00:02:06;;;;;;;9.20;5.50;;;;;;;18.90;100.00;96219.84;6155418;23;20020;-82
2023/06/16 00:04:32;;;;;;;10.83;5.20;;;;;;;18.51;100.00;96224.25;6155242;23;20000;-81
2023/06/16 00:06:58;;;;;;;10.03;5.57;;;;;;;18.47;100.00;96220.38;6155766;23;20012;-81
2023/06/16 00:09:26;;;;;;;8.83;5.70;;;;;;;18.55;100.00;96222.81;6130878;23;19997;-82
2023/06/16 00:11:55;;;;;;;11.20;6.33;;;;;;;18.44;100.00;96226.09;6155085;23;20012;-82
2023/06/16 00:14:20;;;;;;;7.53;5.50;;;;;;;18.48;100.00;96222.03;6155482;23;20001;-81
2023/06/16 00:16:49;;;;;;;10.10;5.90;;;;;;;18.48;100.00;96222.03;6154936;23;20092;-82
2023/06/16 00:19:15;;;;;;;9.60;5.10;;;;;;;18.48;100.00;96222.03;6128647;23;20059;-82
2023/06/16 00:21:44;;;;;;;10.87;6.00;;;;;;;18.38;100.00;96230.44;6150270;23;20386;-82
2023/06/16 00:24:10;;;;;;;9.10;5.80;;;;;;;18.33;100.00;96224.91;6150344;23;20071;-82
2023/06/16 00:26:38;;;;;;;9.07;5.70;;;;;;;18.28;100.00;96221.25;6149878;23;20547;-82
2023/06/16 00:29:05;;;;;;;8.87;6.37;;;;;;;18.21;100.00;96221.25;6151706;23;20091;-82
2023/06/16 00:31:31;;;;;;;9.13;6.10;;;;;;;17.87;100.00;96224.94;6131263;23;19997;-82
2023/06/16 00:33:58;;;;;;;10.63;5.80;;;;;;;17.89;100.00;96221.06;6156095;23;20095;-81
2023/06/16 00:36:23;;;;;;;8.20;5.17;;;;;;;17.73;100.00;96217.97;6156785;23;20083;-82
2023/06/16 00:38:50;;;;;;;9.07;5.73;;;;;;;17.76;100.00;96209.59;6155745;23;20468;-81
2023/06/16 00:41:16;;;;;;;9.50;6.27;;;;;;;17.81;100.00;96209.84;6135123;23;20005;-82
2023/06/16 00:43:46;;;;;;;9.53;6.27;;;;;;;17.79;100.00;96211.88;6160672;23;20429;-82
2023/06/16 00:46:27;;;;;;;7.80;5.63;;;;;;;17.91;100.00;96210.25;6141929;23;20008;-81
2023/06/16 00:48:55;;;;;;;8.33;5.77;;;;;;;18.02;100.00;96206.94;6180590;23;20414;-82
2023/06/16 00:51:21;;;;;;;9.43;5.37;;;;;;;17.96;100.00;96213.09;6154567;23;20028;-81
2023/06/16 00:53:50;;;;;;;7.93;5.53;;;;;;;18.02;100.00;96214.94;6130279;23;20479;-82
2023/06/16 00:56:16;;;;;;;9.93;5.70;;;;;;;17.85;100.00;96211.06;6180300;23;20004;-82
2023/06/16 00:58:43;;;;;;;9.03;6.30;;;;;;;17.63;100.00;96207.72;6179874;23;20009;-82
2023/06/16 01:01:12;;;;;;;7.40;5.57;;;;;;;17.77;100.00;96209.44;6177499;23;20095;-82
2023/06/16 01:03:39;;;;;;;9.03;5.97;;;;;;;18.05;100.00;96211.84;6152685;23;20025;-82
2023/06/16 01:06:15;;;;;;;9.23;5.80;;;;;;;18.07;100.00;96204.47;6154953;23;20023;-81
2023/06/16 01:08:54;;;;;;;10.23;5.73;;;;;;;17.78;100.00;96204.91;6154595;23;20101;-82
2023/06/16 01:11:42;;;;;;;9.60;5.93;;;;;;;17.99;100.00;96206.53;6129831;23;20100;-82
2023/06/16 01:14:23;;;;;;;11.00;5.90;;;;;;;17.78;100.00;96204.91;6130483;23;20012;-82
2023/06/16 01:16:51;;;;;;;8.48;6.80;;;;;;;17.81;100.00;96208.00;6155699;23;20005;-82
2023/06/16 01:19:28;;;;;;;9.87;6.47;;;;;;;17.79;100.00;96201.22;6154384;23;20016;-82
2023/06/16 01:22:15;;;;;;;10.13;6.37;;;;;;;17.84;100.00;96206.72;6129826;23;20083;-82
2023/06/16 01:24:42;;;;;;;12.70;6.93;;;;;;;17.86;100.00;96205.50;6154848;23;20060;-82
2023/06/16 01:27:13;;;;;;;10.70;6.90;;;;;;;17.72;100.00;96201.19;6155146;23;20072;-81
2023/06/16 01:29:40;;;;;;;8.63;6.30;;;;;;;17.83;100.00;96207.78;6131201;23;20081;-82
2023/06/16 01:32:09;;;;;;;9.13;6.17;;;;;;;17.73;100.00;96207.34;6155157;23;20020;-82
2023/06/16 01:34:35;;;;;;;9.20;6.10;;;;;;;17.70;100.00;96199.75;6131257;23;20433;-82
2023/06/16 01:37:03;;;;;;;13.80;6.33;;;;;;;17.79;100.00;96201.22;6130394;23;20091;-81
2023/06/16 01:39:29;;;;;;;8.80;5.93;;;;;;;17.89;100.00;96201.63;6156995;23;20016;-82
2023/06/16 01:41:56;;;;;;;8.23;6.10;;;;;;;18.17;100.00;96196.06;6154532;23;20345;-82
2023/06/16 01:44:22;;;;;;;13.73;6.60;;;;;;;18.05;100.00;96197.72;6129911;23;20008;-82
2023/06/16 01:46:50;;;;;;;8.97;5.63;;;;;;;17.94;100.00;96201.00;6154779;23;20449;-82
2023/06/16 01:49:16;;;;;;;9.87;6.03;;;;;;;17.98;100.00;96197.75;6131165;23;20005;-82
2023/06/16 01:51:41;;;;;;;8.20;5.80;;;;;;;18.06;100.00;96196.69;6160476;23;20009;-82
2023/06/16 01:54:07;;;;;;;10.53;6.10;;;;;;;17.72;100.00;96192.41;6154187;23;20092;-82
2023/06/16 01:56:33;;;;;;;10.13;6.53;;;;;;;17.54;100.00;96191.19;6154901;23;20001;-82
2023/06/16 01:58:59;;;;;;;11.40;6.30;;;;;;;17.48;100.00;96193.84;6130242;23;20005;-82
2023/06/16 02:01:39;;;;;;;11.20;6.40;;;;;;;17.80;100.00;96193.03;6153994;23;20019;-82
2023/06/16 02:04:20;;;;;;;8.80;5.87;;;;;;;17.77;100.00;96193.47;6128819;23;20004;-82
2023/06/16 02:06:58;;;;;;;11.33;6.83;;;;;;;17.92;100.00;96195.09;6152980;23;20456;-81
2023/06/16 02:09:25;;;;;;;8.67;5.40;;;;;;;18.01;100.00;96193.84;6154735;23;20008;-82
2023/06/16 02:11:53;;;;;;;9.90;6.43;;;;;;;18.12;100.00;96195.88;6153026;23;20055;-82
2023/06/16 02:14:21;;;;;;;10.40;5.83;;;;;;;18.11;100.00;96192.41;6154146;23;20508;-82
2023/06/16 02:16:50;;;;;;;8.67;6.00;;;;;;;18.09;100.00;96189.13;6154651;23;20001;-81
2023/06/16 02:19:16;;;;;;;8.27;5.80;;;;;;;18.16;100.00;96191.78;6130124;23;20004;-82
2023/06/16 02:21:42;;;;;;;9.73;6.67;;;;;;;18.05;100.00;96189.75;6129009;23;20005;-81
2023/06/16 02:24:08;;;;;;;8.77;5.83;;;;;;;18.07;100.00;96188.50;6153727;23;20097;-82
2023/06/16 02:26:37;;;;;;;10.13;6.20;;;;;;;18.34;100.00;96188.44;6154139;23;20001;-82
2023/06/16 02:29:02;;;;;;;8.90;6.17;;;;;;;18.46;100.00;96184.13;6130178;23;20329;-82
2023/06/16 02:31:28;;;;;;;11.60;6.17;;;;;;;18.27;100.00;96184.97;6154008;23;20330;-81
2023/06/16 02:33:55;;;;;;;8.70;6.33;;;;;;;18.04;100.00;96199.59;6153759;23;20016;-82
2023/06/16 02:36:29;;;;;;;8.50;5.80;;;;;;;18.07;100.00;96191.16;6153659;23;20001;-82
2023/06/16 02:38:55;;;;;;;8.90;6.50;;;;;;;18.07;100.00;96187.69;6129106;23;20027;-82
2023/06/16 02:41:21;;;;;;;9.77;6.10;;;;;;;18.31;100.00;96194.22;6154409;23;20433;-82
2023/06/16 02:43:46;;;;;;;9.30;6.20;;;;;;;18.09;100.00;96197.09;6129149;23;20005;-82
2023/06/16 02:46:12;;;;;;;10.00;6.23;;;;;;;18.03;100.00;96197.13;6129076;23;20005;-82
2023/06/16 02:48:39;;;;;;;10.50;6.63;;;;;;;17.99;100.00;96202.03;6122354;23;20020;-83
2023/06/16 02:51:04;;;;;;;7.07;5.60;;;;;;;17.85;100.00;96201.22;6153290;23;20092;-82
2023/06/16 02:53:33;;;;;;;8.37;6.33;;;;;;;17.73;100.00;96202.00;6128443;23;20306;-82
2023/06/16 02:56:02;;;;;;;8.53;6.03;;;;;;;17.70;100.00;96202.41;6130209;23;20564;-81
2023/06/16 02:58:30;;;;;;;8.43;6.00;;;;;;;17.64;100.00;96201.41;6129891;23;20009;-81
2023/06/16 03:00:57;;;;;;;9.40;6.37;;;;;;;17.59;100.00;96198.53;6129037;23;20052;-82
2023/06/16 03:03:48;;;;;;;10.83;6.73;;;;;;;17.67;100.00;96198.31;6163429;23;20463;-82
2023/06/16 03:06:34;;;;;;;10.33;6.17;;;;;;;17.66;100.00;96208.13;6132395;23;20261;-81
2023/06/16 03:09:04;;;;;;;9.47;6.13;;;;;;;17.60;100.00;96208.94;6130249;23;20048;-82
2023/06/16 03:11:36;;;;;;;10.17;6.60;;;;;;;17.44;100.00;96210.19;6129612;23;20430;-82
2023/06/16 03:14:02;;;;;;;9.47;6.17;;;;;;;17.57;100.00;96204.06;6153663;23;20009;-82
2023/06/16 03:16:40;;;;;;;10.17;6.20;;;;;;;17.34;100.00;96209.75;6153876;23;20004;-82
2023/06/16 03:19:07;;;;;;;9.67;6.43;;;;;;;17.42;100.00;96206.09;6152964;23;20009;-82
2023/06/16 03:21:35;;;;;;;11.10;6.60;;;;;;;17.41;100.00;96204.47;6127606;23;20001;-81
2023/06/16 03:24:00;;;;;;;9.97;6.20;;;;;;;17.26;100.00;96209.13;6152562;23;20013;-82
2023/06/16 03:26:31;;;;;;;9.50;6.27;;;;;;;17.48;100.00;96212.44;6152554;23;20048;-81
2023/06/16 03:29:06;;;;;;;9.13;6.77;;;;;;;17.37;100.00;96216.50;6130450;23;20027;-81
2023/06/16 03:31:32;;;;;;;12.27;7.13;;;;;;;17.36;100.00;96214.88;6153461;23;20011;-83
2023/06/16 03:34:06;;;;;;;10.70;6.20;;;;;;;17.30;100.00;96218.31;6179494;23;20036;-82
2023/06/16 03:36:39;;;;;;;10.70;7.43;;;;;;;17.12;100.00;96218.91;6156524;23;20012;-82
2023/06/16 03:39:06;;;;;;;10.37;6.80;;;;;;;16.90;100.00;96229.69;6130134;23;20001;-82
2023/06/16 03:41:33;;;;;;;8.67;6.40;;;;;;;16.73;100.00;96226.53;6147517;23;20015;-82
2023/06/16 03:43:59;;;;;;;8.83;6.43;;;;;;;16.50;100.00;96229.47;6131476;23;20004;-82
2023/06/16 03:46:34;;;;;;;9.10;6.83;;;;;;;17.06;100.00;96225.84;6154281;23;20341;-82
2023/06/16 03:49:01;;;;;;;11.43;7.60;;;;;;;17.15;100.00;96227.28;6129171;23;20009;-82
2023/06/16 03:51:35;;;;;;;8.73;6.43;;;;;;;17.18;100.00;96226.09;6127960;23;20024;-82
2023/06/16 03:54:03;;;;;;;11.60;7.37;;;;;;;17.25;100.00;96223.44;6152433;23;20062;-82
2023/06/16 03:56:29;;;;;;;11.17;7.07;;;;;;;17.49;100.00;96222.88;6128478;23;20327;-82
2023/06/16 03:58:55;;;;;;;11.53;7.87;;;;;;;17.39;100.00;96219.78;6154454;23;20001;-82
2023/06/16 04:01:30;;;;;;;10.67;6.60;;;;;;;17.37;100.00;96232.44;6155630;23;20063;-82
2023/06/16 04:03:56;;;;;;;12.47;6.27;;;;;;;17.51;100.00;96223.50;6154875;23;20071;-82
2023/06/16 04:06:24;;;;;;;11.63;7.57;;;;;;;17.49;100.00;96228.19;6131873;23;20008;-82
2023/06/16 04:08:51;;;;;;;8.80;6.00;;;;;;;17.78;100.00;96232.34;6155478;23;20328;-82
2023/06/16 04:11:18;;;;;;;9.20;6.27;;;;;;;17.31;100.00;96220.00;6138085;23;20020;-82
2023/06/16 04:13:49;;;;;;;9.43;5.90;;;;;;;17.43;100.00;96228.97;6156091;23;20005;-82
2023/06/16 04:16:15;;;;;;;9.53;6.17;;;;;;;17.59;100.00;96231.25;6131493;23;20009;-80
2023/06/16 04:18:47;;;;;;;8.00;5.80;;;;;;;17.71;100.00;96228.00;6130678;23;20092;-81
2023/06/16 04:21:17;;;;;;;8.03;6.00;;;;;;;18.03;100.00;96231.72;6154581;23;20013;-82
2023/06/16 04:23:43;;;;;;;11.77;7.30;;;;;;;17.20;100.00;96222.22;6131535;23;20009;-82
2023/06/16 04:26:10;;;;;;;9.07;6.70;;;;;;;17.25;100.00;96234.88;6155301;23;20091;-82
2023/06/16 04:28:43;;;;;;;12.07;7.23;;;;;;;17.62;100.00;96232.69;6180336;23;20005;-82
2023/06/16 04:31:12;;;;;;;10.27;6.80;;;;;;;18.04;100.00;96242.16;6129076;23;20055;-82
2023/06/16 04:33:41;;;;;;;9.40;5.93;;;;;;;18.32;100.00;96231.25;6130012;23;20429;-81
2023/06/16 04:36:19;;;;;;;10.37;6.93;;;;;;;18.36;100.00;96224.50;6130898;23;20031;-81
2023/06/16 04:38:45;;;;;;;10.90;6.47;;;;;;;18.41;100.00;96220.38;6130464;23;20436;-81
2023/06/16 04:41:11;;;;;;;9.67;6.50;;;;;;;18.14;100.00;96229.25;6152162;23;20008;-81
2023/06/16 04:43:36;;;;;;;14.17;7.60;;;;;;;18.04;100.00;96226.19;6130744;23;20055;-81
2023/06/16 04:46:02;;;;;;;9.63;7.13;;;;;;;18.02;100.00;96228.22;6131471;23;20028;-81
2023/06/16 04:48:30;;;;;;;9.93;7.27;;;;;;;18.56;100.00;96219.13;6130247;23;20643;-81
2023/06/16 04:50:57;;;;;;;12.27;7.43;;;;;;;18.47;100.00;96220.38;6155273;23;20045;-81
2023/06/16 04:53:23;;;;;;;8.40;6.63;;;;;;;18.60;100.00;96223.00;6130853;23;20001;-81
2023/06/16 04:55:49;;;;;;;9.37;7.07;;;;;;;18.89;100.00;96223.53;6155064;23;20061;-81
2023/06/16 04:58:15;;;;;;;11.43;7.83;;;;;;;18.90;100.00;96217.16;6180532;23;20005;-82
2023/06/16 05:00:43;;;;;;;9.90;6.70;;;;;;;19.00;100.00;96224.72;6155031;23;20044;-82
2023/06/16 05:03:09;;;;;;;9.53;7.20;;;;;;;18.85;100.00;96222.34;6152941;23;20001;-82
2023/06/16 05:05:36;;;;;;;9.53;7.40;;;;;;;19.29;100.00;96220.69;6155622;23;20076;-82
2023/06/16 05:08:04;;;;;;;10.47;6.53;;;;;;;19.47;100.00;96218.09;6154957;23;20017;-80
2023/06/16 05:10:31;;;;;;;9.23;6.63;;;;;;;19.60;100.00;96219.03;6130345;23;20048;-82
2023/06/16 05:13:00;;;;;;;10.60;6.90;;;;;;;19.69;100.00;96220.44;6154180;23;20005;-82
2023/06/16 05:15:39;;;;;;;9.03;6.27;;;;;;;19.26;100.00;96223.78;6129655;23;20083;-82
2023/06/16 05:18:05;;;;;;;11.80;6.13;;;;;;;19.58;100.00;96215.75;6154792;23;20005;-82
2023/06/16 05:20:33;;;;;;;9.60;5.67;;;;;;;19.50;100.00;96215.00;6152242;23;20001;-82
2023/06/16 05:23:02;;;;;;;11.47;6.30;;;;;;;19.99;100.00;96213.41;6150962;23;20437;-84
2023/06/16 05:25:30;;;;;;;10.57;5.90;;;;;;;20.05;100.00;96217.03;6154832;23;20016;-83
2023/06/16 05:27:59;;;;;;;8.87;5.93;;;;;;;20.70;100.00;96205.94;6130101;23;20001;-84
2023/06/16 05:30:25;;;;;;;8.87;5.17;;;;;;;20.55;100.00;96214.31;6154846;23;20191;-83
2023/06/16 05:32:51;;;;;;;7.67;5.50;;;;;;;20.37;100.00;96214.28;6129922;23;20015;-83
2023/06/16 05:35:23;;;;;;;9.23;5.83;;;;;;;20.27;100.00;96220.16;6155285;23;20411;-83
2023/06/16 05:37:48;;;;;;;7.77;5.53;;;;;;;20.55;100.00;96216.19;6182870;23;20080;-83
2023/06/16 05:40:14;;;;;;;9.70;5.70;;;;;;;20.13;100.00;96215.97;6130482;23;20009;-83
2023/06/16 05:42:40;;;;;;;8.27;5.87;;;;;;;20.88;100.00;96211.25;6172546;23;20012;-82
2023/06/16 05:45:06;;;;;;;8.13;5.27;;;;;;;21.05;100.00;96219.50;6129460;23;20004;-83
2023/06/16 05:47:36;;;;;;;8.25;6.13;;;;;;;20.75;100.00;96222.13;6129237;23;20009;-83
2023/06/16 05:50:02;;;;;;;9.43;6.13;;;;;;;21.16;100.00;96220.59;6154305;23;20434;-83
2023/06/16 05:52:29;;;;;;;7.40;5.53;;;;;;;20.99;100.00;96215.03;6154264;23;20040;-82
2023/06/16 05:54:57;;;;;;;9.02;5.90;;;;;;;21.36;100.00;96225.69;6154365;23;20009;-83
2023/06/16 05:57:32;;;;;;;9.18;5.93;;;;;;;21.05;100.00;96224.03;6131421;23;20040;-83
2023/06/16 05:59:58;;;;;;;7.80;5.40;;;;;;;21.39;100.00;96223.41;6154318;23;20024;-83
2023/06/16 06:02:24;;;;;;;9.60;5.45;;;;;;;21.67;100.00;96223.81;6154507;23;20013;-80
2023/06/16 06:04:50;;;;;;;9.80;6.05;;;;;;;21.61;100.00;96226.34;6153190;23;20005;-80
2023/06/16 06:07:16;;;;;;;7.78;5.38;;;;;;;21.78;100.00;96226.50;6129887;23;20278;-80
2023/06/16 06:09:42;;;;;;;7.32;4.80;;;;;;;22.18;100.00;96225.06;6154309;23;20001;-80
2023/06/16 06:12:09;;;;;;;7.15;5.45;;;;;;;22.96;94.68;96224.66;6154213;23;20351;-81
2023/06/16 06:14:35;;;;;;;9.60;5.93;;;;;;;22.03;100.00;96233.53;6154214;23;20066;-81
2023/06/16 06:17:01;;;;;;;8.63;6.03;;;;;;;22.00;100.00;96233.97;6130482;23;20504;-81
2023/06/16 06:19:29;;;;;;;8.23;5.97;;;;;;;22.26;98.35;96236.25;6130062;23;20011;-81
2023/06/16 06:21:56;;;;;;;7.10;5.55;;;;;;;23.38;89.69;96239.69;6129081;23;20008;-80
2023/06/16 06:24:22;;;;;;;8.02;5.07;;;;;;;23.67;87.73;96237.78;6127825;23;20005;-81
2023/06/16 06:26:47;;;;;;;7.25;5.30;;;;;;;23.96;82.02;96236.69;6126816;23;20425;-81
2023/06/16 06:29:15;;;;;;;9.15;5.35;;;;;;;24.34;79.40;96237.00;6153952;23;20001;-81
2023/06/16 06:31:41;;;;;;;7.95;5.75;;;;;;;24.15;78.33;96236.47;6135901;23;20005;-81
2023/06/16 06:34:08;;;;;;;7.65;5.38;;;;;;;24.10;78.24;96239.88;6128842;23;20008;-81
2023/06/16 06:36:36;;;;;;;7.95;4.93;;;;;;;24.30;78.47;96242.06;6125995;23;20012;-81
2023/06/16 06:39:02;;;;;;;8.85;5.50;;;;;;;24.30;76.46;96242.06;6147550;23;20052;-80
2023/06/16 06:41:28;;;;;;;7.85;4.72;;;;;;;24.38;74.43;96240.81;6128300;23;20008;-81
2023/06/16 06:44:00;;;;;;;12.23;5.32;;;;;;;25.18;70.67;96242.22;6129966;23;20008;-80
2023/06/16 06:46:43;;;;;;;6.88;5.15;;;;;;;26.00;64.30;96237.69;6131363;23;20005;-81
2023/06/16 06:49:09;;;;;;;9.88;5.25;;;;;;;26.66;59.51;96243.56;6151629;23;20012;-80
2023/06/16 06:51:36;;;;;;;7.45;5.03;;;;;;;26.49;58.96;96241.03;6127117;23;20496;-80
2023/06/16 06:54:02;;;;;;;7.03;4.65;;;;;;;27.38;52.64;96246.59;6153357;23;20016;-80
2023/06/16 06:56:27;;;;;;;7.65;4.90;;;;;;;26.42;55.95;96245.00;6156371;23;20584;-80
2023/06/16 06:58:53;;;;;;;7.53;4.53;;;;;;;27.10;56.18;96255.94;6130153;23;20009;-80
2023/06/16 07:01:20;;;;;;;8.63;5.25;;;;;;;27.34;51.86;96254.44;6180149;23;20363;-80
2023/06/16 07:03:46;;;;;;;6.30;4.32;;;;;;;28.28;46.29;96257.00;6153306;23;20009;-81
2023/06/16 07:06:21;;;;;;;7.72;4.70;;;;;;;28.15;47.20;96261.06;6128728;23;20020;-81
2023/06/16 07:08:51;;;;;;;5.93;4.40;;;;;;;28.07;47.50;96262.44;6129050;23;20001;-80
2023/06/16 07:11:16;;;;;;;7.18;4.40;;;;;;;29.28;44.37;96259.81;6128540;23;20008;-81
2023/06/16 07:13:42;;;;;;;6.60;4.00;;;;;;;29.72;41.97;96256.34;6129536;23;20005;-81
2023/06/16 07:16:07;;;;;;;6.40;4.32;;;;;;;28.94;44.18;96269.63;6180124;23;20385;-82
2023/06/16 07:18:33;;;;;;;5.50;4.10;;;;;;;29.70;41.95;96263.94;6154130;23;20392;-82
2023/06/16 07:20:59;;;;;;;7.93;4.35;;;;;;;29.81;41.55;96254.66;6179123;23;20318;-82
2023/06/16 07:23:28;;;;;;;9.98;4.55;;;;;;;29.30;43.32;96267.63;6153223;23;20009;-82
2023/06/16 07:25:54;;;;;;;6.80;4.45;;;;;;;30.11;41.23;96269.06;6154284;23;20009;-82
2023/06/16 07:28:20;;;;;;;11.77;5.22;;;;;;;30.10;40.10;96264.75;6179125;23;20850;-82
2023/06/16 07:30:46;;;;;;;6.93;4.60;;;;;;;30.83;39.74;96268.50;6154521;23;20008;-82
2023/06/16 07:33:11;;;;;;;5.93;4.22;;;;;;;30.77;39.12;96270.44;6130124;23;20001;-82
2023/06/16 07:35:37;;;;;;;7.15;4.47;;;;;;;30.81;37.93;96268.75;6157231;23;20008;-82
2023/06/16 07:38:02;;;;;;;7.78;4.47;;;;;;;31.63;38.04;96263.19;6132676;23;20013;-82
2023/06/16 07:40:28;;;;;;;5.90;3.92;;;;;;;30.84;38.54;96261.97;6132690;23;20326;-82
2023/06/16 07:42:54;;;;;;;4.28;3.33;;;;;;;31.07;32.91;96272.03;6143884;23;20009;-82
2023/06/16 07:45:19;;;;;;;6.50;4.25;;;;;;;32.29;33.35;96266.03;6135298;23;20012;-82
2023/06/16 07:48:02;;;;;;;8.65;4.55;;;;;;;32.41;31.35;96258.22;6155613;23;20009;-82
2023/06/16 07:50:27;;;;;;;9.10;4.75;;;;;;;33.26;30.84;96261.56;6180993;23;20440;-82
2023/06/16 07:52:53;;;;;;;7.32;4.20;;;;;;;32.92;31.81;96267.41;6130210;23;20028;-83
2023/06/16 07:55:19;;;;;;;6.18;4.55;;;;;;;32.08;31.19;96265.56;6130933;23;20059;-83
2023/06/16 07:57:45;;;;;;;10.20;4.70;;;;;;;33.35;30.19;96261.66;6155282;23;20013;-82
2023/06/16 08:00:12;;;;;;;6.63;3.83;;;;;;;31.48;30.60;96270.75;6182461;23;20092;-82
2023/06/16 08:02:50;;;;;;;8.13;3.75;;;;;;;32.88;28.79;96261.75;6154511;23;20076;-82
2023/06/16 08:05:16;;;;;;;7.03;3.55;;;;;;;33.15;28.07;96260.97;6155066;23;20001;-82
2023/06/16 08:07:43;;;;;;;5.85;3.63;;;;;;;33.22;27.61;96260.56;6129587;23;20016;-82
2023/06/16 08:10:09;;;;;;;9.60;4.32;;;;;;;32.62;27.42;96253.22;6129678;23;20030;-83
2023/06/16 08:12:35;;;;;;;4.70;3.15;;;;;;;33.87;26.38;96254.81;6153328;23;20008;-82
2023/06/16 08:15:02;;;;;;;7.45;3.55;;;;;;;33.00;26.82;96259.38;6155072;23;20004;-83
2023/06/16 08:17:27;;;;;;;6.40;3.70;;;;;;;34.44;25.31;96257.00;6130887;23;20031;-82
2023/06/16 08:19:53;;;;;;;6.03;4.05;;;;;;;32.84;26.69;96252.56;6155184;23;20577;-82
2023/06/16 08:22:19;;;;;;;6.75;3.58;;;;;;;33.41;26.86;96255.81;6130578;23;20040;-82
2023/06/16 08:24:45;;;;;;;5.50;3.85;;;;;;;33.02;26.87;96250.88;6128486;23;20339;-82
2023/06/16 08:27:11;;;;;;;7.38;3.60;;;;;;;34.37;23.85;96246.53;6154036;23;20005;-82
2023/06/16 08:29:36;;;;;;;6.65;3.67;;;;;;;33.43;23.61;96247.31;6155361;23;20016;-82
2023/06/16 08:32:06;;;;;;;7.45;3.33;;;;;;;34.23;22.21;96252.06;6154877;23;19997;-82
2023/06/16 08:34:33;;;;;;;5.38;3.20;;;;;;;33.87;22.25;96243.09;6155582;23;20004;-82
2023/06/16 08:37:00;;;;;;;11.20;3.75;;;;;;;33.84;22.30;96244.53;6180948;23;20001;-82
2023/06/16 08:39:26;;;;;;;6.70;3.92;;;;;;;34.23;21.65;96248.53;6181397;23;19997;-83
2023/06/16 08:41:52;;;;;;;6.70;3.75;;;;;;;34.65;21.65;96243.69;6154672;23;20016;-82
2023/06/16 08:44:21;;;;;;;8.82;4.00;;;;;;;33.58;21.59;96246.22;6130539;23;20015;-82
2023/06/16 08:46:46;;;;;;;6.72;3.72;;;;;;;35.41;21.23;96249.78;6154222;23;20433;-83
2023/06/16 08:49:14;;;;;;;5.57;3.50;;;;;;;34.37;21.12;96238.34;6155429;23;19997;-82
2023/06/16 08:51:47;;;;;;;6.43;3.53;;;;;;;35.08;21.60;96240.34;6179078;23;20076;-82
2023/06/16 08:54:13;;;;;;;;;;;;;;;35.27;21.05;96240.88;6131021;23;20603;-81
2023/06/16 08:56:50;;;;;;;7.45;3.90;;;;;;;35.32;21.04;96239.94;6130883;23;19908;-82
2023/06/16 08:59:17;;;;;;;5.65;3.85;;;;;;;36.50;20.11;96243.41;6180115;23;20027;-82
2023/06/16 09:01:44;;;;;;;6.95;3.72;;;;;;;35.23;20.48;96228.97;6154479;23;20606;-82
2023/06/16 09:04:09;;;;;;;8.27;3.72;;;;;;;36.76;20.06;96228.81;6129415;23;20001;-82
2023/06/16 09:06:36;;;;;;;8.82;4.20;;;;;;;36.14;20.36;96240.19;6154836;23;20079;-82
2023/06/16 09:09:03;;;;;;;7.55;4.05;;;;;;;31.72;24.10;96238.06;6130262;23;20005;-82
2023/06/16 09:11:30;;;;;;;7.03;4.05;;;;;;;32.01;22.50;96243.34;6129178;23;20036;-82
2023/06/16 09:13:56;;;;;;;7.90;4.05;;;;;;;32.73;22.22;96237.50;6130649;23;20012;-82
2023/06/16 09:16:23;;;;;;;7.47;4.55;;;;;;;34.06;21.73;96238.28;6130990;23;20441;-82
2023/06/16 09:18:49;;;;;;;9.10;4.20;;;;;;;34.89;20.63;96229.66;6154675;23;20016;-82
2023/06/16 09:21:32;;;;;;;7.88;4.43;;;;;;;34.03;20.91;96231.53;6129666;23;20088;-82
2023/06/16 09:23:58;;;;;;;6.38;3.97;;;;;;;33.54;21.61;96232.41;6130110;23;20001;-82
2023/06/16 09:26:30;;;;;;;5.50;4.07;;;;;;;34.32;20.69;96229.50;6129516;23;20112;-82
2023/06/16 09:29:21;;;;;;;8.85;4.43;;;;;;;35.18;20.49;96221.75;6154764;23;20501;-82
2023/06/16 09:31:47;;;;;;;8.25;4.30;;;;;;;35.64;21.43;96227.78;6129906;23;20001;-82
2023/06/16 09:34:13;;;;;;;7.55;3.97;;;;;;;34.89;21.51;96224.97;6154021;23;20012;-82
2023/06/16 09:36:39;;;;;;;5.95;4.38;;;;;;;35.27;21.28;96224.47;6155391;23;20036;-82
2023/06/16 09:39:07;;;;;;;6.25;3.70;;;;;;;36.04;20.25;96227.66;6156100;23;20494;-82
2023/06/16 09:41:36;;;;;;;6.75;4.30;;;;;;;36.28;20.06;96225.19;6154291;23;20050;-82
2023/06/16 09:44:02;;;;;;;9.27;3.90;;;;;;;35.81;20.28;96233.25;6161939;23;20004;-82
2023/06/16 09:46:28;;;;;;;7.35;3.95;;;;;;;36.66;19.16;96213.53;6129773;23;20372;-82
2023/06/16 09:48:54;;;;;;;6.32;4.63;;;;;;;35.92;20.76;96221.97;6154486;23;20008;-82
2023/06/16 09:51:32;;;;;;;6.28;3.92;;;;;;;36.55;19.80;96204.88;6129293;23;20012;-82
2023/06/16 09:53:58;;;;;;;6.88;4.55;;;;;;;37.30;19.21;96200.84;6129558;23;20012;-82
2023/06/16 09:56:29;;;;;;;7.07;3.80;;;;;;;34.08;21.91;96211.50;6154564;23;20001;-82
2023/06/16 09:58:55;;;;;;;7.93;4.03;;;;;;;35.41;21.31;96219.69;6180960;23;20041;-82
2023/06/16 10:01:24;;;;;;;6.47;3.65;;;;;;;36.27;20.53;96212.63;6129136;23;20079;-81
2023/06/16 10:03:51;;;;;;;8.52;4.00;;;;;;;35.43;21.37;96217.44;6129155;23;20013;-82
2023/06/16 10:06:20;;;;;;;6.50;3.75;;;;;;;34.15;21.83;96216.53;6155084;23;20035;-82
2023/06/16 10:08:54;;;;;;;6.47;4.22;;;;;;;32.86;23.00;96221.19;6129549;23;20009;-82
2023/06/16 10:11:20;;;;;;;6.03;4.10;;;;;;;34.24;22.38;96212.75;6128187;23;20072;-82
2023/06/16 10:13:53;;;;;;;7.53;4.72;;;;;;;34.69;22.23;96209.16;6154501;23;20099;-82
2023/06/16 10:16:25;;;;;;;5.93;4.20;;;;;;;33.81;22.24;96204.22;6129327;23;20009;-82
2023/06/16 10:18:54;;;;;;;7.43;4.13;;;;;;;35.63;21.54;96209.75;6178553;23;20012;-82
2023/06/16 10:21:22;;;;;;;6.15;3.92;;;;;;;36.09;21.03;96202.84;6129687;23;20444;-82
2023/06/16 10:23:52;;;;;;;7.88;4.43;;;;;;;35.67;21.40;96205.25;6129823;23;20005;-84
2023/06/16 10:26:18;;;;;;;5.88;3.78;;;;;;;34.42;21.97;96210.91;6129268;23;20400;-82
2023/06/16 10:28:45;;;;;;;9.00;4.32;;;;;;;33.48;22.85;96198.97;6178162;23;20005;-82
2023/06/16 10:31:11;;;;;;;9.02;3.80;;;;;;;33.97;22.10;96194.56;6154067;23;20004;-81
2023/06/16 10:33:57;;;;;;;7.45;4.32;;;;;;;35.24;22.07;96205.16;6180312;23;20318;-82
2023/06/16 10:36:38;;;;;;;7.13;4.50;;;;;;;35.00;21.86;96202.84;6130212;23;20060;-82
2023/06/16 10:39:08;;;;;;;6.88;4.35;;;;;;;34.76;22.05;96209.50;6129207;23;20036;-84
2023/06/16 10:41:47;;;;;;;9.63;4.07;;;;;;;34.76;21.93;96208.69;6178416;23;20005;-84
2023/06/16 10:44:28;;;;;;;7.13;3.75;;;;;;;34.86;22.05;96201.03;6129662;23;20016;-84
2023/06/16 10:47:09;;;;;;;8.50;4.35;;;;;;;31.99;24.17;96213.72;6154552;23;20459;-87
2023/06/16 10:50:00;;;;;;;8.00;4.47;;;;;;;30.33;26.22;96210.88;6154057;23;20009;-83
2023/06/16 10:52:28;;;;;;;6.85;4.18;;;;;;;33.23;23.84;96207.66;6154263;23;20036;-85
2023/06/16 10:54:55;;;;;;;7.63;3.95;;;;;;;34.36;22.16;96198.50;6154501;23;20044;-82
2023/06/16 10:57:25;;;;;;;7.57;3.97;;;;;;;33.67;23.32;96198.81;6153937;23;20013;-83
2023/06/16 10:59:59;;;;;;;7.10;4.00;;;;;;;33.46;22.98;96203.09;6154520;23;20052;-82
2023/06/16 11:02:47;;;;;;;7.68;3.97;;;;;;;31.92;23.96;96191.53;6128978;23;20013;-82
2023/06/16 11:05:14;;;;;;;9.75;4.50;;;;;;;31.71;25.01;96199.19;6180731;23;20060;-83
2023/06/16 11:08:01;;;;;;;8.50;4.10;;;;;;;31.91;25.18;96198.88;6156326;23;20016;-83
2023/06/16 11:10:27;;;;;;;6.80;3.95;;;;;;;32.26;24.85;96213.03;6157829;23;20378;-83
2023/06/16 11:12:53;;;;;;;7.18;4.30;;;;;;;33.41;23.42;96208.66;6158412;23;20020;-83
2023/06/16 11:15:23;;;;;;;6.60;4.20;;;;;;;33.07;23.95;96204.47;6158021;23;20001;-82
2023/06/16 11:17:48;;;;;;;7.57;4.57;;;;;;;33.89;22.84;96200.75;6134739;23;20092;-85
2023/06/16 11:20:14;;;;;;;9.32;5.07;;;;;;;33.72;22.89;96203.34;6133249;23;20033;-82
2023/06/16 11:22:40;;;;;;;9.25;4.90;;;;;;;34.64;22.39;96195.63;6157940;23;20012;-83
2023/06/16 11:25:10;;;;;;;6.80;4.45;;;;;;;34.73;22.00;96194.53;6159617;23;20001;-83
2023/06/16 11:27:38;;;;;;;7.22;3.88;;;;;;;34.34;22.57;96195.31;6134006;23;20009;-82
2023/06/16 11:30:20;;;;;;;7.05;3.78;;;;;;;34.35;22.56;96185.19;6157732;23;20080;-82
2023/06/16 11:32:50;;;;;;;7.80;4.80;;;;;;;34.84;21.86;96180.59;6132875;23;20019;-82
2023/06/16 11:35:16;;;;;;;9.43;4.05;;;;;;;35.10;21.97;96186.97;6134139;23;20000;-82